createdAt,value
2017-05-25T00:00:12.126Z,90.78
2017-05-25T00:01:13.377Z,90.69
2017-05-25T00:02:14.653Z,90.4
2017-05-25T00:03:15.927Z,90.5
2017-05-25T00:04:17.185Z,90.59
2017-05-25T00:05:18.444Z,90.31
2017-05-25T00:06:19.702Z,90.21
2017-05-25T00:07:20.950Z,90.4
2017-05-25T00:08:22.209Z,90.59
2017-05-25T00:09:23.691Z,90.5
2017-05-25T00:10:24.938Z,91.26
2017-05-25T00:11:26.269Z,91.07
2017-05-25T00:12:27.524Z,90.97
2017-05-25T00:13:28.803Z,90.97
2017-05-25T00:14:30.159Z,91.16
2017-05-25T00:15:31.410Z,91.16
2017-05-25T00:16:32.672Z,91.93
2017-05-25T00:17:33.911Z,91.83
2017-05-25T00:18:35.150Z,91.74
2017-05-25T00:19:36.519Z,92.02
2017-05-25T00:20:37.820Z,92.31
2017-05-25T00:21:39.075Z,92.36
2017-05-25T00:22:40.317Z,92.12
2017-05-25T00:23:41.563Z,93.02
2017-05-25T00:24:42.833Z,92.46
2017-05-25T00:25:44.049Z,92.97
2017-05-25T00:26:45.297Z,92.83
2017-05-25T00:27:46.531Z,92.65
2017-05-25T00:28:47.770Z,92.79
2017-05-25T00:29:49.008Z,92.74
2017-05-25T00:30:50.295Z,92.74
2017-05-25T00:31:51.499Z,93.02
2017-05-25T00:32:52.745Z,93.51
2017-05-25T00:33:53.999Z,93.22
2017-05-25T00:34:55.254Z,93.51
2017-05-25T00:35:56.498Z,93.98
2017-05-25T00:36:57.746Z,93.98
2017-05-25T00:37:58.985Z,94.36
2017-05-25T00:39:00.231Z,94.07
2017-05-25T00:40:01.512Z,94.46
2017-05-25T00:41:02.746Z,94.84
2017-05-25T00:42:03.999Z,95.51
2017-05-25T00:43:05.248Z,95.41
2017-05-25T00:44:06.508Z,95.61
2017-05-25T00:45:07.890Z,95.22
2017-05-25T00:46:09.150Z,95.61
2017-05-25T00:47:10.382Z,95.79
2017-05-25T00:48:11.621Z,95.98
2017-05-25T00:49:12.871Z,95.89
2017-05-25T00:50:14.110Z,96.17
2017-05-25T00:51:15.355Z,96.37
2017-05-25T00:52:16.673Z,96.27
2017-05-25T00:53:17.947Z,96.7
2017-05-25T00:54:19.321Z,96.7
2017-05-25T00:55:20.568Z,96.61
2017-05-25T00:56:21.816Z,96.7
2017-05-25T00:57:23.087Z,96.13
2017-05-25T00:58:24.319Z,96.8
2017-05-25T00:59:25.574Z,97.27
2017-05-25T01:00:26.848Z,97.17
2017-05-25T01:01:28.071Z,96.98
2017-05-25T01:02:29.310Z,97.17
2017-05-25T01:03:30.629Z,97.46
2017-05-25T01:04:31.979Z,97.46
2017-05-25T01:05:33.438Z,97.66
2017-05-25T01:06:34.708Z,97.66
2017-05-25T01:07:35.945Z,97.46
2017-05-25T01:08:37.188Z,97.27
2017-05-25T01:09:38.433Z,97.46
2017-05-25T01:10:39.752Z,97.94
2017-05-25T01:11:40.991Z,98.13
2017-05-25T01:12:42.244Z,98.32
2017-05-25T01:13:43.490Z,98.22
2017-05-25T01:14:44.746Z,98.8
2017-05-25T01:15:46.149Z,98.8
2017-05-25T01:16:47.359Z,98.42
2017-05-25T01:17:48.605Z,98.61
2017-05-25T01:18:49.852Z,98.99
2017-05-25T01:19:51.168Z,99.08
2017-05-25T01:20:52.442Z,99.18
2017-05-25T01:21:53.705Z,99.18
2017-05-25T01:22:54.932Z,99.08
2017-05-25T01:23:56.214Z,98.99
2017-05-25T01:24:57.461Z,99.46
2017-05-25T01:25:58.704Z,99.37
2017-05-25T01:27:00.008Z,99.8
2017-05-25T01:28:01.249Z,99.66
2017-05-25T01:29:02.495Z,99.99
2017-05-25T01:30:03.825Z,99.95
2017-05-25T01:31:05.045Z,99.8
2017-05-25T01:32:06.363Z,99.99
2017-05-25T01:33:07.603Z,99.99
2017-05-25T01:34:08.844Z,99.99
2017-05-25T01:35:10.148Z,99.89
2017-05-25T01:36:11.392Z,99.99
2017-05-25T01:37:12.655Z,99.99
2017-05-25T01:38:13.885Z,99.99
2017-05-25T01:39:15.128Z,99.99
2017-05-25T01:40:16.391Z,99.99
2017-05-25T01:41:17.625Z,99.99
2017-05-25T01:42:19.028Z,99.99
2017-05-25T01:43:20.275Z,99.99
2017-05-25T01:44:21.526Z,99.99
2017-05-25T01:45:22.792Z,99.99
2017-05-25T01:46:24.056Z,99.99
2017-05-25T01:47:25.313Z,99.99
2017-05-25T01:48:26.560Z,99.99
2017-05-25T01:49:27.776Z,99.99
2017-05-25T01:50:29.025Z,99.99
2017-05-25T01:51:30.267Z,99.99
2017-05-25T01:52:31.514Z,99.99
2017-05-25T01:53:32.786Z,99.99
2017-05-25T01:54:34.084Z,99.99
2017-05-25T01:55:35.413Z,99.99
2017-05-25T01:56:36.651Z,99.99
2017-05-25T01:57:37.899Z,99.99
2017-05-25T01:58:39.141Z,99.99
2017-05-25T01:59:40.391Z,99.99
2017-05-25T02:00:41.674Z,99.99
2017-05-25T02:01:42.926Z,99.99
2017-05-25T02:02:44.168Z,99.99
2017-05-25T02:03:45.440Z,99.99
2017-05-25T02:04:46.692Z,99.99
2017-05-25T02:05:48.024Z,99.99
2017-05-25T02:06:49.320Z,99.99
2017-05-25T02:07:50.555Z,99.99
2017-05-25T02:08:51.821Z,99.99
2017-05-25T02:09:53.048Z,99.99
2017-05-25T02:10:54.295Z,99.99
2017-05-25T02:11:55.554Z,99.99
2017-05-25T02:12:56.797Z,99.99
2017-05-25T02:13:58.102Z,99.27
2017-05-25T02:14:59.355Z,99.56
2017-05-25T02:16:00.598Z,99.08
2017-05-25T02:17:01.843Z,99.37
2017-05-25T02:18:03.082Z,99.27
2017-05-25T02:19:04.365Z,98.8
2017-05-25T02:20:05.727Z,98.8
2017-05-25T02:21:06.965Z,98.13
2017-05-25T02:22:08.229Z,98.42
2017-05-25T02:23:09.459Z,98.42
2017-05-25T02:24:10.708Z,98.03
2017-05-25T02:25:12.000Z,98.42
2017-05-25T02:26:13.236Z,98.51
2017-05-25T02:27:14.489Z,98.13
2017-05-25T02:28:15.726Z,98.42
2017-05-25T02:29:16.982Z,98.22
2017-05-25T02:30:18.378Z,98.03
2017-05-25T02:31:19.676Z,98.32
2017-05-25T02:32:21.023Z,97.75
2017-05-25T02:33:22.276Z,97.46
2017-05-25T02:34:23.498Z,97.17
2017-05-25T02:35:24.744Z,97.46
2017-05-25T02:36:26.046Z,97.61
2017-05-25T02:37:27.413Z,96.94
2017-05-25T02:38:28.647Z,97.22
2017-05-25T02:39:29.893Z,97.51
2017-05-25T02:40:31.167Z,97.22
2017-05-25T02:41:32.401Z,97.71
2017-05-25T02:42:33.815Z,96.56
2017-05-25T02:43:35.079Z,97.22
2017-05-25T02:44:36.310Z,96.75
2017-05-25T02:45:37.578Z,96.94
2017-05-25T02:46:38.819Z,96.17
2017-05-25T02:47:40.165Z,96.17
2017-05-25T02:48:41.433Z,96.46
2017-05-25T02:49:42.677Z,95.89
2017-05-25T02:50:43.940Z,95.79
2017-05-25T02:51:45.178Z,95.79
2017-05-25T02:52:46.429Z,95.98
2017-05-25T02:53:47.672Z,95.61
2017-05-25T02:54:48.938Z,95.98
2017-05-25T02:55:50.232Z,95.98
2017-05-25T02:56:51.524Z,95.7
2017-05-25T02:57:52.740Z,95.61
2017-05-25T02:58:53.998Z,95.61
2017-05-25T02:59:55.218Z,95.7
2017-05-25T03:00:56.527Z,95.51
2017-05-25T03:01:57.825Z,95.03
2017-05-25T03:02:59.159Z,95.41
2017-05-25T03:04:00.403Z,95.12
2017-05-25T03:05:01.653Z,94.93
2017-05-25T03:06:02.894Z,94.93
2017-05-25T03:07:04.160Z,94.98
2017-05-25T03:08:05.453Z,95.08
2017-05-25T03:09:06.694Z,94.51
2017-05-25T03:10:07.930Z,94.56
2017-05-25T03:11:09.178Z,94.41
2017-05-25T03:12:10.439Z,94.6
2017-05-25T03:13:11.707Z,94.12
2017-05-25T03:14:12.947Z,94.12
2017-05-25T03:15:14.270Z,94.22
2017-05-25T03:16:15.463Z,93.84
2017-05-25T03:17:16.711Z,93.84
2017-05-25T03:18:18.016Z,93.74
2017-05-25T03:19:19.240Z,93.46
2017-05-25T03:20:20.569Z,93.55
2017-05-25T03:21:21.818Z,93.74
2017-05-25T03:22:23.065Z,93.36
2017-05-25T03:23:24.319Z,93.26
2017-05-25T03:24:25.585Z,92.88
2017-05-25T03:25:26.840Z,92.88
2017-05-25T03:26:28.250Z,93.07
2017-05-25T03:27:29.520Z,92.88
2017-05-25T03:28:30.745Z,92.88
2017-05-25T03:29:31.992Z,93.36
2017-05-25T03:30:33.257Z,92.88
2017-05-25T03:31:34.508Z,92.21
2017-05-25T03:32:35.763Z,92.6
2017-05-25T03:33:37.020Z,92.31
2017-05-25T03:34:38.259Z,92.69
2017-05-25T03:35:39.512Z,92.6
2017-05-25T03:36:40.753Z,92.5
2017-05-25T03:37:41.997Z,92.41
2017-05-25T03:38:43.253Z,91.64
2017-05-25T03:39:44.500Z,91.93
2017-05-25T03:40:45.747Z,92.21
2017-05-25T03:41:46.989Z,92.02
2017-05-25T03:42:48.243Z,91.74
2017-05-25T03:43:49.477Z,91.55
2017-05-25T03:44:50.721Z,92.02
2017-05-25T03:45:52.069Z,92.02
2017-05-25T03:46:53.329Z,91.93
2017-05-25T03:47:54.593Z,91.16
2017-05-25T03:48:55.815Z,91.26
2017-05-25T03:49:57.074Z,91.36
2017-05-25T03:50:58.332Z,90.97
2017-05-25T03:51:59.695Z,90.97
2017-05-25T03:53:00.937Z,91.55
2017-05-25T03:54:02.220Z,91.26
2017-05-25T03:55:03.452Z,91.07
2017-05-25T03:56:04.700Z,90.97
2017-05-25T03:57:06.024Z,91.36
2017-05-25T03:58:07.258Z,91.45
2017-05-25T03:59:08.500Z,91.55
2017-05-25T04:00:09.745Z,90.97
2017-05-25T04:01:10.994Z,90.78
2017-05-25T04:02:12.253Z,91.26
2017-05-25T04:03:13.474Z,91.36
2017-05-25T04:04:14.733Z,90.59
2017-05-25T04:05:16.138Z,90.4
2017-05-25T04:06:17.383Z,90.4
2017-05-25T04:07:18.626Z,90.64
2017-05-25T04:08:19.861Z,90.21
2017-05-25T04:09:21.114Z,90.21
2017-05-25T04:10:22.439Z,90.31
2017-05-25T04:11:23.762Z,89.92
2017-05-25T04:12:24.985Z,90.11
2017-05-25T04:13:26.231Z,90.69
2017-05-25T04:14:27.471Z,90.16
2017-05-25T04:15:28.809Z,90.64
2017-05-25T04:16:30.208Z,90.16
2017-05-25T04:17:31.440Z,90.25
2017-05-25T04:18:32.690Z,90.25
2017-05-25T04:19:33.956Z,89.59
2017-05-25T04:20:35.194Z,89.97
2017-05-25T04:21:36.443Z,89.59
2017-05-25T04:22:37.727Z,89.59
2017-05-25T04:23:38.966Z,89.01
2017-05-25T04:24:40.219Z,89.3
2017-05-25T04:25:41.463Z,88.92
2017-05-25T04:26:42.711Z,88.63
2017-05-25T04:27:43.970Z,88.82
2017-05-25T04:28:45.228Z,89.39
2017-05-25T04:29:46.510Z,89.2
2017-05-25T04:30:47.748Z,88.82
2017-05-25T04:31:49.011Z,88.54
2017-05-25T04:32:50.235Z,88.44
2017-05-25T04:33:51.473Z,88.92
2017-05-25T04:34:52.721Z,88.25
2017-05-25T04:35:53.983Z,88.34
2017-05-25T04:36:55.356Z,88.06
2017-05-25T04:37:56.585Z,87.96
2017-05-25T04:38:57.832Z,88.25
2017-05-25T04:39:59.086Z,88.06
2017-05-25T04:41:00.438Z,88.15
2017-05-25T04:42:01.691Z,87.87
2017-05-25T04:43:03.109Z,87.68
2017-05-25T04:44:04.241Z,87.87
2017-05-25T04:45:05.490Z,87.29
2017-05-25T04:46:06.732Z,87.58
2017-05-25T04:47:08.048Z,87.68
2017-05-25T04:48:09.299Z,87.96
2017-05-25T04:49:10.544Z,87.87
2017-05-25T04:50:11.805Z,87.39
2017-05-25T04:51:13.065Z,87.1
2017-05-25T04:52:14.411Z,87.01
2017-05-25T04:53:15.694Z,87.2
2017-05-25T04:54:16.930Z,87.58
2017-05-25T04:55:18.181Z,87.01
2017-05-25T04:56:19.426Z,87.1
2017-05-25T04:57:20.670Z,86.91
2017-05-25T04:58:21.932Z,86.82
2017-05-25T04:59:23.163Z,86.82
2017-05-25T05:00:24.414Z,86.63
2017-05-25T05:01:25.665Z,86.86
2017-05-25T05:02:26.912Z,86.34
2017-05-25T05:03:28.150Z,86.34
2017-05-25T05:04:29.392Z,86.76
2017-05-25T05:05:30.640Z,86.67
2017-05-25T05:06:31.940Z,86.47
2017-05-25T05:07:33.159Z,85.9
2017-05-25T05:08:34.411Z,85.62
2017-05-25T05:09:35.655Z,85.42
2017-05-25T05:10:36.892Z,85.52
2017-05-25T05:11:38.203Z,85.42
2017-05-25T05:12:39.452Z,85.62
2017-05-25T05:13:40.746Z,85.52
2017-05-25T05:14:41.991Z,85.33
2017-05-25T05:15:43.307Z,85.42
2017-05-25T05:16:44.606Z,85.62
2017-05-25T05:17:45.797Z,85.52
2017-05-25T05:18:47.092Z,85.05
2017-05-25T05:19:48.328Z,85.62
2017-05-25T05:20:49.636Z,85.24
2017-05-25T05:21:50.887Z,84.85
2017-05-25T05:22:52.144Z,84.95
2017-05-25T05:23:53.391Z,84.66
2017-05-25T05:24:54.686Z,85.05
2017-05-25T05:25:56.053Z,85.71
2017-05-25T05:26:57.396Z,84.76
2017-05-25T05:27:58.662Z,84.66
2017-05-25T05:28:59.881Z,84.85
2017-05-25T05:30:01.128Z,84.95
2017-05-25T05:31:02.378Z,84.38
2017-05-25T05:32:03.768Z,84.56
2017-05-25T05:33:04.989Z,84.56
2017-05-25T05:34:06.233Z,84.47
2017-05-25T05:35:07.486Z,84.38
2017-05-25T05:36:08.802Z,84.56
2017-05-25T05:37:10.074Z,83.61
2017-05-25T05:38:11.343Z,83.42
2017-05-25T05:39:12.588Z,83.23
2017-05-25T05:40:13.846Z,82.84
2017-05-25T05:41:15.121Z,82.37
2017-05-25T05:42:16.431Z,82.75
2017-05-25T05:43:17.771Z,82.12
2017-05-25T05:44:19.043Z,81.99
2017-05-25T05:45:20.318Z,82.08
2017-05-25T05:46:21.550Z,82.12
2017-05-25T05:47:22.821Z,81.84
2017-05-25T05:48:24.129Z,81.84
2017-05-25T05:49:25.372Z,80.5
2017-05-25T05:50:26.624Z,80.5
2017-05-25T05:51:27.879Z,79.83
2017-05-25T05:52:29.121Z,79.73
2017-05-25T05:53:30.427Z,80.02
2017-05-25T05:54:31.664Z,79.83
2017-05-25T05:55:33.044Z,80.11
2017-05-25T05:56:34.323Z,79.44
2017-05-25T05:57:35.653Z,79.35
2017-05-25T05:58:36.924Z,78.91
2017-05-25T05:59:38.176Z,78.34
2017-05-25T06:00:39.410Z,78.05
2017-05-25T06:01:40.675Z,78.14
2017-05-25T06:02:41.991Z,77.95
2017-05-25T06:03:43.281Z,77.76
2017-05-25T06:04:44.528Z,77.48
2017-05-25T06:05:45.792Z,77.28
2017-05-25T06:06:47.032Z,76.27
2017-05-25T06:07:48.316Z,76.56
2017-05-25T06:08:49.583Z,75.89
2017-05-25T06:09:50.797Z,74.49
2017-05-25T06:10:52.032Z,73.15
2017-05-25T06:11:53.282Z,72.23
2017-05-25T06:12:54.552Z,71.27
2017-05-25T06:13:55.872Z,71.02
2017-05-25T06:14:57.072Z,69.48
2017-05-25T06:15:58.330Z,68.56
2017-05-25T06:16:59.576Z,66.86
2017-05-25T06:18:00.826Z,65.2
2017-05-25T06:19:02.142Z,62.1
2017-05-25T06:20:03.453Z,59.94
2017-05-25T06:21:04.747Z,56.6
2017-05-25T06:22:05.994Z,53.77
2017-05-25T06:23:07.247Z,51.68
2017-05-25T06:24:08.630Z,50.18
2017-05-25T06:25:10.016Z,48.83
2017-05-25T06:26:11.261Z,47.5
2017-05-25T06:27:12.573Z,46.25
2017-05-25T06:28:13.823Z,45.96
2017-05-25T06:29:15.072Z,45.96
2017-05-25T06:30:16.373Z,46.23
2017-05-25T06:31:17.633Z,46.44
2017-05-25T06:32:18.885Z,45.94
2017-05-25T06:33:20.146Z,46.3
2017-05-25T06:34:21.402Z,47.17
2017-05-25T06:35:22.699Z,48.11
2017-05-25T06:36:24.026Z,50.21
2017-05-25T06:37:25.300Z,50.11
2017-05-25T06:38:26.617Z,49.39
2017-05-25T06:39:27.889Z,47.99
2017-05-25T06:40:29.207Z,44.48
2017-05-25T06:41:30.588Z,42.22
2017-05-25T06:42:31.968Z,38.79
2017-05-25T06:43:33.218Z,36.79
2017-05-25T06:44:34.596Z,34.88
2017-05-25T06:45:35.863Z,32.68
2017-05-25T06:46:37.114Z,31.74
2017-05-25T06:47:38.441Z,30.18
2017-05-25T06:48:39.880Z,30.46
2017-05-25T06:49:41.132Z,31.61
2017-05-25T06:50:42.378Z,31.14
2017-05-25T06:51:43.641Z,30.17
2017-05-25T06:52:44.876Z,29.5
2017-05-25T06:53:46.137Z,29.13
2017-05-25T06:54:47.387Z,28.34
2017-05-25T06:55:48.721Z,28.07
2017-05-25T06:56:49.982Z,27.22
2017-05-25T06:57:51.237Z,26.45
2017-05-25T06:58:52.580Z,25.86
2017-05-25T06:59:53.868Z,25.76
2017-05-25T07:00:55.149Z,25.11
2017-05-25T07:01:56.568Z,24.74
2017-05-25T07:02:57.825Z,23.77
2017-05-25T07:03:59.079Z,23.65
2017-05-25T07:05:00.423Z,23.93
2017-05-25T07:06:01.694Z,24.89
2017-05-25T07:07:02.933Z,26.34
2017-05-25T07:08:04.192Z,26.82
2017-05-25T07:09:05.479Z,26.92
2017-05-25T07:10:06.747Z,26.53
2017-05-25T07:11:08.007Z,26.81
2017-05-25T07:12:09.272Z,27.09
2017-05-25T07:13:10.549Z,27.66
2017-05-25T07:14:11.808Z,28.53
2017-05-25T07:15:13.080Z,29
2017-05-25T07:16:14.365Z,29.5
2017-05-25T07:17:15.591Z,29.11
2017-05-25T07:18:16.880Z,28.85
2017-05-25T07:19:18.153Z,28.38
2017-05-25T07:20:19.408Z,26.84
2017-05-25T07:21:20.696Z,25.99
2017-05-25T07:22:21.936Z,24.15
2017-05-25T07:23:23.185Z,23.58
2017-05-25T07:24:24.484Z,22.31
2017-05-25T07:25:25.754Z,22.03
2017-05-25T07:26:27.004Z,20.38
2017-05-25T07:27:28.261Z,20.57
2017-05-25T07:28:29.524Z,21.16
2017-05-25T07:29:30.781Z,20.86
2017-05-25T07:30:32.176Z,21.64
2017-05-25T07:31:33.440Z,21.73
2017-05-25T07:32:34.745Z,22.12
2017-05-25T07:33:35.994Z,21.74
2017-05-25T07:34:37.240Z,21.45
2017-05-25T07:35:38.495Z,20.69
2017-05-25T07:36:39.787Z,19.64
2017-05-25T07:37:41.095Z,18.68
2017-05-25T07:38:42.368Z,18.87
2017-05-25T07:39:43.665Z,19.73
2017-05-25T07:40:44.921Z,20.1
2017-05-25T07:41:46.199Z,20.98
2017-05-25T07:42:47.445Z,21.47
2017-05-25T07:43:48.724Z,21.27
2017-05-25T07:44:49.982Z,21.08
2017-05-25T07:45:51.252Z,20.77
2017-05-25T07:46:52.556Z,22.03
2017-05-25T07:47:53.815Z,22.6
2017-05-25T07:48:55.134Z,23.64
2017-05-25T07:49:56.425Z,25.08
2017-05-25T07:50:57.733Z,26.13
2017-05-25T07:51:58.983Z,27.18
2017-05-25T07:53:00.241Z,27.94
2017-05-25T07:54:01.493Z,28.9
2017-05-25T07:55:02.757Z,30.43
2017-05-25T07:56:04.070Z,31.18
2017-05-25T07:57:05.458Z,32.23
2017-05-25T07:58:06.675Z,33.09
2017-05-25T07:59:07.937Z,33.94
2017-05-25T08:00:09.196Z,34.41
2017-05-25T08:01:10.553Z,35.19
2017-05-25T08:02:11.817Z,35.57
2017-05-25T08:03:13.076Z,35.38
2017-05-25T08:04:14.321Z,35.48
2017-05-25T08:05:15.601Z,34.99
2017-05-25T08:06:16.832Z,35.27
2017-05-25T08:07:18.097Z,35.86
2017-05-25T08:08:19.376Z,35.77
2017-05-25T08:09:20.620Z,34.91
2017-05-25T08:10:21.888Z,34.23
2017-05-25T08:11:23.117Z,33.94
2017-05-25T08:12:24.403Z,34.14
2017-05-25T08:13:25.635Z,33.75
2017-05-25T08:14:26.901Z,33.36
2017-05-25T08:15:28.215Z,33.92
2017-05-25T08:16:29.452Z,34.8
2017-05-25T08:17:30.713Z,35.19
2017-05-25T08:18:31.998Z,34.61
2017-05-25T08:19:33.267Z,33.76
2017-05-25T08:20:34.524Z,32.44
2017-05-25T08:21:35.860Z,31.21
2017-05-25T08:22:37.124Z,29.3
2017-05-25T08:23:38.406Z,27.48
2017-05-25T08:24:39.652Z,27.11
2017-05-25T08:25:40.962Z,26.62
2017-05-25T08:26:42.240Z,26.14
2017-05-25T08:27:43.528Z,26.07
2017-05-25T08:28:44.778Z,24.05
2017-05-25T08:29:46.059Z,22.12
2017-05-25T08:30:47.318Z,21.06
2017-05-25T08:31:48.594Z,20.2
2017-05-25T08:32:49.893Z,19.6
2017-05-25T08:33:51.247Z,19.99
2017-05-25T08:34:52.463Z,19.7
2017-05-25T08:35:53.714Z,19.71
2017-05-25T08:36:54.972Z,19.7
2017-05-25T08:37:56.256Z,20.1
2017-05-25T08:38:57.610Z,19.51
2017-05-25T08:39:58.761Z,19.81
2017-05-25T08:41:00.019Z,18.85
2017-05-25T08:42:01.288Z,18.35
2017-05-25T08:43:02.558Z,19.51
2017-05-25T08:44:03.814Z,20.36
2017-05-25T08:45:05.074Z,21.13
2017-05-25T08:46:06.326Z,21.81
2017-05-25T08:47:07.652Z,21.33
2017-05-25T08:48:08.905Z,21.42
2017-05-25T08:49:10.187Z,21.13
2017-05-25T08:50:11.460Z,21.34
2017-05-25T08:51:12.724Z,20.86
2017-05-25T08:52:13.990Z,20.09
2017-05-25T08:53:15.249Z,19.72
2017-05-25T08:54:16.514Z,18.46
2017-05-25T08:55:17.775Z,18.66
2017-05-25T08:56:19.043Z,17.21
2017-05-25T08:57:20.457Z,17.8
2017-05-25T08:58:21.862Z,17.6
2017-05-25T08:59:23.127Z,18.09
2017-05-25T09:00:24.382Z,18.48
2017-05-25T09:01:25.640Z,18.56
2017-05-25T09:02:26.900Z,19.62
2017-05-25T09:03:28.160Z,20.19
2017-05-25T09:04:29.407Z,20.48
2017-05-25T09:05:30.700Z,21.44
2017-05-25T09:06:31.939Z,22.31
2017-05-25T09:07:33.216Z,22.31
2017-05-25T09:08:34.509Z,22.81
2017-05-25T09:09:35.776Z,22.42
2017-05-25T09:10:37.038Z,21.09
2017-05-25T09:11:38.294Z,19.46
2017-05-25T09:12:39.553Z,18.29
2017-05-25T09:13:40.918Z,17.13
2017-05-25T09:14:42.308Z,15.57
2017-05-25T09:15:43.566Z,15.3
2017-05-25T09:16:44.827Z,14.62
2017-05-25T09:17:46.092Z,14.43
2017-05-25T09:18:47.368Z,13.45
2017-05-25T09:19:48.635Z,12.77
2017-05-25T09:20:49.916Z,12.08
2017-05-25T09:21:51.215Z,11.4
2017-05-25T09:22:52.461Z,11.39
2017-05-25T09:23:53.724Z,11.39
2017-05-25T09:24:55.027Z,11.99
2017-05-25T09:25:56.316Z,11.59
2017-05-25T09:26:57.700Z,11.4
2017-05-25T09:27:58.852Z,11.11
2017-05-25T09:29:00.123Z,10.72
2017-05-25T09:30:01.432Z,10.24
2017-05-25T09:31:02.705Z,9.64
2017-05-25T09:32:04.099Z,9.24
2017-05-25T09:33:05.362Z,9.64
2017-05-25T09:34:06.649Z,9.64
2017-05-25T09:35:07.908Z,9.24
2017-05-25T09:36:09.179Z,9.45
2017-05-25T09:37:10.439Z,8.56
2017-05-25T09:38:11.843Z,8.96
2017-05-25T09:39:12.994Z,8.96
2017-05-25T09:40:14.284Z,8.57
2017-05-25T09:41:15.550Z,8.17
2017-05-25T09:42:16.862Z,8.37
2017-05-25T09:43:18.256Z,8.17
2017-05-25T09:44:19.608Z,8.67
2017-05-25T09:45:20.868Z,7.97
2017-05-25T09:46:22.127Z,7.37
2017-05-25T09:47:23.396Z,7.77
2017-05-25T09:48:24.766Z,7.87
2017-05-25T09:49:26.057Z,7.37
2017-05-25T09:50:27.320Z,7.76
2017-05-25T09:51:28.634Z,8.34
2017-05-25T09:52:29.872Z,8.83
2017-05-25T09:53:31.131Z,9.42
2017-05-25T09:54:32.403Z,9.22
2017-05-25T09:55:33.784Z,9.63
2017-05-25T09:56:35.063Z,9.63
2017-05-25T09:57:36.312Z,9.14
2017-05-25T09:58:37.565Z,8.65
2017-05-25T09:59:38.871Z,8.65
2017-05-25T10:00:40.153Z,9.16
2017-05-25T10:01:41.406Z,8.95
2017-05-25T10:02:42.673Z,9.25
2017-05-25T10:03:43.937Z,9.54
2017-05-25T10:04:45.206Z,9.64
2017-05-25T10:05:46.542Z,8.96
2017-05-25T10:06:47.840Z,8.76
2017-05-25T10:07:49.116Z,8.85
2017-05-25T10:08:50.393Z,9.44
2017-05-25T10:09:51.707Z,8.75
2017-05-25T10:10:52.897Z,8.65
2017-05-25T10:11:54.164Z,8.15
2017-05-25T10:12:55.424Z,7.96
2017-05-25T10:13:56.863Z,8.25
2017-05-25T10:14:58.132Z,9.34
2017-05-25T10:15:59.395Z,8.75
2017-05-25T10:17:00.671Z,8.75
2017-05-25T10:18:01.992Z,8.65
2017-05-25T10:19:03.276Z,8.74
2017-05-25T10:20:04.526Z,8.84
2017-05-25T10:21:05.788Z,10.03
2017-05-25T10:22:07.067Z,9.73
2017-05-25T10:23:08.470Z,9.81
2017-05-25T10:24:09.926Z,9.92
2017-05-25T10:25:11.202Z,9.03
2017-05-25T10:26:12.475Z,9.42
2017-05-25T10:27:13.747Z,10.78
2017-05-25T10:28:15.035Z,11.47
2017-05-25T10:29:16.340Z,12.56
2017-05-25T10:30:17.709Z,12.56
2017-05-25T10:31:18.969Z,12.56
2017-05-25T10:32:20.209Z,11.37
2017-05-25T10:33:21.466Z,11.96
2017-05-25T10:34:22.737Z,11.27
2017-05-25T10:35:24.029Z,11.57
2017-05-25T10:36:25.293Z,12.15
2017-05-25T10:37:26.576Z,12.84
2017-05-25T10:38:27.812Z,12.73
2017-05-25T10:39:29.079Z,13.59
2017-05-25T10:40:30.570Z,14.56
2017-05-25T10:41:32.044Z,15.53
2017-05-25T10:42:33.303Z,15.72
2017-05-25T10:43:34.556Z,16.69
2017-05-25T10:44:35.811Z,18.63
2017-05-25T10:45:37.065Z,19.6
2017-05-25T10:46:38.437Z,19.39
2017-05-25T10:47:39.699Z,19.67
2017-05-25T10:48:40.955Z,21.39
2017-05-25T10:49:42.222Z,22.72
2017-05-25T10:50:43.479Z,25.04
2017-05-25T10:51:44.901Z,24.74
2017-05-25T10:52:46.339Z,24.82
2017-05-25T10:53:47.585Z,26.65
2017-05-25T10:54:48.840Z,26.64
2017-05-25T10:55:50.096Z,27.8
2017-05-25T10:56:51.347Z,28.49
2017-05-25T10:57:52.655Z,29.05
2017-05-25T10:58:53.893Z,29.04
2017-05-25T10:59:55.149Z,30.98
2017-05-25T11:00:56.403Z,31.27
2017-05-25T11:01:57.650Z,31.76
2017-05-25T11:02:58.941Z,32.05
2017-05-25T11:04:00.249Z,31.94
2017-05-25T11:05:01.612Z,32.71
2017-05-25T11:06:02.747Z,33.39
2017-05-25T11:07:04.018Z,32.7
2017-05-25T11:08:05.255Z,32.59
2017-05-25T11:09:06.512Z,34.33
2017-05-25T11:10:07.773Z,34.04
2017-05-25T11:11:09.102Z,34.62
2017-05-25T11:12:10.349Z,34.89
2017-05-25T11:13:11.609Z,35.19
2017-05-25T11:14:12.852Z,35.28
2017-05-25T11:15:14.099Z,34.41
2017-05-25T11:16:15.367Z,32.76
2017-05-25T11:17:16.626Z,32.76
2017-05-25T11:18:17.907Z,33.92
2017-05-25T11:19:19.164Z,34.12
2017-05-25T11:20:20.422Z,33.73
2017-05-25T11:21:21.713Z,33.25
2017-05-25T11:22:22.977Z,34.28
2017-05-25T11:23:24.232Z,34.36
2017-05-25T11:24:25.595Z,35.23
2017-05-25T11:25:26.849Z,35.62
2017-05-25T11:26:28.096Z,36.76
2017-05-25T11:27:29.340Z,37.05
2017-05-25T11:28:30.720Z,35.52
2017-05-25T11:29:31.978Z,36.2
2017-05-25T11:30:33.239Z,36.49
2017-05-25T11:31:34.477Z,35.91
2017-05-25T11:32:35.725Z,36.4
2017-05-25T11:33:36.997Z,36.2
2017-05-25T11:34:38.266Z,36.96
2017-05-25T11:35:39.511Z,37.65
2017-05-25T11:36:40.806Z,36.58
2017-05-25T11:37:42.030Z,36.38
2017-05-25T11:38:43.306Z,38.04
2017-05-25T11:39:44.568Z,37.05
2017-05-25T11:40:45.837Z,36.96
2017-05-25T11:41:47.111Z,36.86
2017-05-25T11:42:48.334Z,37.94
2017-05-25T11:43:49.614Z,36.76
2017-05-25T11:44:50.860Z,37.82
2017-05-25T11:45:52.115Z,37.24
2017-05-25T11:46:53.370Z,37.63
2017-05-25T11:47:54.679Z,37.63
2017-05-25T11:48:56.075Z,38.02
2017-05-25T11:49:57.354Z,37.65
2017-05-25T11:50:58.576Z,37.44
2017-05-25T11:51:59.825Z,37.62
2017-05-25T11:53:01.110Z,38.68
2017-05-25T11:54:02.482Z,38.97
2017-05-25T11:55:03.808Z,39.24
2017-05-25T11:56:05.050Z,39.82
2017-05-25T11:57:06.375Z,40.38
2017-05-25T11:58:07.586Z,41.63
2017-05-25T11:59:08.865Z,41.63
2017-05-25T12:00:10.168Z,42.41
2017-05-25T12:01:11.486Z,41.44
2017-05-25T12:02:12.734Z,41.35
2017-05-25T12:03:14.009Z,41.91
2017-05-25T12:04:15.257Z,42
2017-05-25T12:05:16.631Z,42.48
2017-05-25T12:06:18.103Z,42.29
2017-05-25T12:07:19.379Z,42.68
2017-05-25T12:08:20.642Z,43.74
2017-05-25T12:09:21.904Z,43.52
2017-05-25T12:10:23.168Z,43.62
2017-05-25T12:11:24.419Z,43.6
2017-05-25T12:12:25.687Z,44.18
2017-05-25T12:13:26.935Z,44.85
2017-05-25T12:14:28.226Z,44.39
2017-05-25T12:15:29.453Z,44.56
2017-05-25T12:16:30.716Z,44.85
2017-05-25T12:17:32.222Z,45.14
2017-05-25T12:18:33.480Z,45.24
2017-05-25T12:19:34.759Z,45.43
2017-05-25T12:20:36.004Z,45.82
2017-05-25T12:21:37.256Z,45.34
2017-05-25T12:22:38.638Z,45.62
2017-05-25T12:23:40.090Z,46.2
2017-05-25T12:24:41.344Z,46.59
2017-05-25T12:25:42.689Z,46.59
2017-05-25T12:26:43.930Z,46.49
2017-05-25T12:27:45.176Z,45.75
2017-05-25T12:28:46.443Z,44.95
2017-05-25T12:29:47.701Z,44.97
2017-05-25T12:30:48.944Z,45.84
2017-05-25T12:31:50.190Z,46.13
2017-05-25T12:32:51.436Z,44.78
2017-05-25T12:33:52.756Z,44.39
2017-05-25T12:34:54.011Z,44.97
2017-05-25T12:35:55.485Z,44.87
2017-05-25T12:36:56.737Z,44.2
2017-05-25T12:37:57.997Z,44.76
2017-05-25T12:38:59.252Z,45.14
2017-05-25T12:40:00.561Z,45.24
2017-05-25T12:41:01.837Z,44.76
2017-05-25T12:42:03.086Z,45.24
2017-05-25T12:43:04.321Z,45.65
2017-05-25T12:44:05.599Z,46.51
2017-05-25T12:45:06.907Z,44.97
2017-05-25T12:46:08.188Z,45.17
2017-05-25T12:47:09.452Z,44.87
2017-05-25T12:48:10.734Z,44.97
2017-05-25T12:49:11.992Z,45.45
2017-05-25T12:50:13.233Z,45.07
2017-05-25T12:51:14.561Z,45.36
2017-05-25T12:52:15.885Z,44.68
2017-05-25T12:53:17.072Z,44.51
2017-05-25T12:54:18.325Z,45.28
2017-05-25T12:55:19.577Z,44.6
2017-05-25T12:56:20.848Z,44.6
2017-05-25T12:57:22.139Z,43.54
2017-05-25T12:58:23.411Z,44.12
2017-05-25T12:59:24.693Z,44.9
2017-05-25T13:00:25.924Z,44.6
2017-05-25T13:01:27.176Z,43.62
2017-05-25T13:02:28.422Z,44.39
2017-05-25T13:03:29.697Z,45.17
2017-05-25T13:04:30.952Z,44.97
2017-05-25T13:05:32.317Z,45.65
2017-05-25T13:06:33.578Z,44.97
2017-05-25T13:07:34.833Z,45.07
2017-05-25T13:08:36.087Z,45.55
2017-05-25T13:09:37.333Z,44.97
2017-05-25T13:10:38.682Z,44.29
2017-05-25T13:11:39.964Z,44.51
2017-05-25T13:12:41.188Z,44.12